sensor_id;sensor_type;location;lat;lon;timestamp;P1;durP1;ratioP1;P2;durP2;ratioP2
51266;SDS011;37338;47.426;19.204;2023-06-14T00:01:24;90.47;;;83.88;;
51266;SDS011;37338;47.426;19.204;2023-06-14T00:03:51;106.53;;;99.00;;
51266;SDS011;37338;47.426;19.204;2023-06-14T00:06:17;187.77;;;174.10;;
51266;SDS011;37338;47.426;19.204;2023-06-14T00:08:42;209.85;;;194.52;;
51266;SDS011;37338;47.426;19.204;2023-06-14T00:11:08;243.23;;;225.48;;
51266;SDS011;37338;47.426;19.204;2023-06-14T00:13:34;307.90;;;286.02;;
51266;SDS011;37338;47.426;19.204;2023-06-14T00:15:59;374.02;;;346.63;;
51266;SDS011;37338;47.426;19.204;2023-06-14T00:18:25;388.65;;;361.65;;
51266;SDS011;37338;47.426;19.204;2023-06-14T00:20:51;345.35;;;320.60;;
51266;SDS011;37338;47.426;19.204;2023-06-14T00:23:17;467.33;;;433.60;;
51266;SDS011;37338;47.426;19.204;2023-06-14T00:25:42;573.58;;;532.63;;
51266;SDS011;37338;47.426;19.204;2023-06-14T00:28:08;751.42;;;694.70;;
51266;SDS011;37338;47.426;19.204;2023-06-14T00:30:33;789.20;;;728.15;;
51266;SDS011;37338;47.426;19.204;2023-06-14T00:32:58;849.47;;;782.20;;
51266;SDS011;37338;47.426;19.204;2023-06-14T00:35:24;952.63;;;865.20;;
51266;SDS011;37338;47.426;19.204;2023-06-14T00:37:50;1023.97;;;925.63;;
51266;SDS011;37338;47.426;19.204;2023-06-14T00:40:15;1099.15;;;984.47;;
51266;SDS011;37338;47.426;19.204;2023-06-14T00:42:41;1131.93;;;999.90;;
51266;SDS011;37338;47.426;19.204;2023-06-14T00:45:06;1278.13;;;999.90;;
51266;SDS011;37338;47.426;19.204;2023-06-14T00:47:32;1255.27;;;999.90;;
51266;SDS011;37338;47.426;19.204;2023-06-14T00:49:57;1130.28;;;997.95;;
51266;SDS011;37338;47.426;19.204;2023-06-14T00:52:24;1144.97;;;999.90;;
51266;SDS011;37338;47.426;19.204;2023-06-14T00:54:49;1302.23;;;999.90;;
51266;SDS011;37338;47.426;19.204;2023-06-14T00:57:15;1366.80;;;999.90;;
51266;SDS011;37338;47.426;19.204;2023-06-14T00:59:45;1475.37;;;999.90;;
51266;SDS011;37338;47.426;19.204;2023-06-14T01:02:12;1509.33;;;999.90;;
51266;SDS011;37338;47.426;19.204;2023-06-14T01:04:40;1598.63;;;999.90;;
51266;SDS011;37338;47.426;19.204;2023-06-14T01:14:48;1642.67;;;999.90;;
51266;SDS011;37338;47.426;19.204;2023-06-14T01:17:14;1589.53;;;999.90;;
51266;SDS011;37338;47.426;19.204;2023-06-14T01:19:42;1545.47;;;999.90;;
51266;SDS011;37338;47.426;19.204;2023-06-14T01:22:09;1526.50;;;999.90;;
51266;SDS011;37338;47.426;19.204;2023-06-14T01:24:35;1435.93;;;999.90;;
51266;SDS011;37338;47.426;19.204;2023-06-14T01:27:00;1305.00;;;978.17;;
51266;SDS011;37338;47.426;19.204;2023-06-14T01:29:27;1354.70;;;995.10;;
51266;SDS011;37338;47.426;19.204;2023-06-14T01:31:57;1350.90;;;994.93;;
51266;SDS011;37338;47.426;19.204;2023-06-14T01:34:23;1375.20;;;987.77;;
51266;SDS011;37338;47.426;19.204;2023-06-14T01:36:49;1414.40;;;982.57;;
51266;SDS011;37338;47.426;19.204;2023-06-14T01:39:15;1474.80;;;991.30;;
51266;SDS011;37338;47.426;19.204;2023-06-14T01:41:43;1514.53;;;999.90;;
51266;SDS011;37338;47.426;19.204;2023-06-14T01:44:10;1543.90;;;999.90;;
51266;SDS011;37338;47.426;19.204;2023-06-14T01:46:36;1748.17;;;999.90;;
51266;SDS011;37338;47.426;19.204;2023-06-14T01:49:01;1730.57;;;999.90;;
51266;SDS011;37338;47.426;19.204;2023-06-14T01:51:27;1442.07;;;975.30;;
51266;SDS011;37338;47.426;19.204;2023-06-14T01:53:52;1353.77;;;955.60;;
51266;SDS011;37338;47.426;19.204;2023-06-14T01:56:18;1344.23;;;946.17;;
51266;SDS011;37338;47.426;19.204;2023-06-14T01:58:43;1396.97;;;950.27;;
51266;SDS011;37338;47.426;19.204;2023-06-14T02:01:08;1401.60;;;963.10;;
51266;SDS011;37338;47.426;19.204;2023-06-14T02:03:34;1456.00;;;992.73;;
51266;SDS011;37338;47.426;19.204;2023-06-14T02:05:59;1546.47;;;994.63;;
51266;SDS011;37338;47.426;19.204;2023-06-14T02:08:25;1690.20;;;999.90;;
51266;SDS011;37338;47.426;19.204;2023-06-14T02:10:51;1686.47;;;999.90;;
51266;SDS011;37338;47.426;19.204;2023-06-14T02:13:17;1744.20;;;999.90;;
51266;SDS011;37338;47.426;19.204;2023-06-14T02:15:42;1607.23;;;999.90;;
51266;SDS011;37338;47.426;19.204;2023-06-14T02:18:09;1478.27;;;999.90;;
51266;SDS011;37338;47.426;19.204;2023-06-14T02:20:35;1419.50;;;999.90;;
51266;SDS011;37338;47.426;19.204;2023-06-14T02:23:00;1332.20;;;999.90;;
51266;SDS011;37338;47.426;19.204;2023-06-14T02:25:26;1363.53;;;999.90;;
51266;SDS011;37338;47.426;19.204;2023-06-14T02:27:53;1344.23;;;999.90;;
51266;SDS011;37338;47.426;19.204;2023-06-14T02:30:19;1402.87;;;999.90;;
51266;SDS011;37338;47.426;19.204;2023-06-14T02:32:45;1465.87;;;999.90;;
51266;SDS011;37338;47.426;19.204;2023-06-14T02:35:11;1683.73;;;999.90;;
51266;SDS011;37338;47.426;19.204;2023-06-14T02:37:38;1976.57;;;999.90;;
51266;SDS011;37338;47.426;19.204;2023-06-14T02:40:04;1999.90;;;999.90;;
51266;SDS011;37338;47.426;19.204;2023-06-14T02:42:31;1999.90;;;999.90;;
51266;SDS011;37338;47.426;19.204;2023-06-14T02:44:56;1999.90;;;999.90;;
51266;SDS011;37338;47.426;19.204;2023-06-14T02:47:21;1999.90;;;999.90;;
51266;SDS011;37338;47.426;19.204;2023-06-14T02:49:47;1999.90;;;999.90;;
51266;SDS011;37338;47.426;19.204;2023-06-14T02:52:12;1999.90;;;999.90;;
51266;SDS011;37338;47.426;19.204;2023-06-14T02:54:38;1999.90;;;999.90;;
51266;SDS011;37338;47.426;19.204;2023-06-14T02:57:03;1999.90;;;999.90;;
51266;SDS011;37338;47.426;19.204;2023-06-14T02:59:29;1999.90;;;999.90;;
51266;SDS011;37338;47.426;19.204;2023-06-14T03:01:54;1999.90;;;999.90;;
51266;SDS011;37338;47.426;19.204;2023-06-14T03:04:20;1999.90;;;999.90;;
51266;SDS011;37338;47.426;19.204;2023-06-14T03:06:45;1999.90;;;999.90;;
51266;SDS011;37338;47.426;19.204;2023-06-14T03:09:15;1999.90;;;999.90;;
51266;SDS011;37338;47.426;19.204;2023-06-14T03:11:41;1999.90;;;999.90;;
51266;SDS011;37338;47.426;19.204;2023-06-14T03:14:06;1999.90;;;999.90;;
51266;SDS011;37338;47.426;19.204;2023-06-14T03:16:33;1999.90;;;999.90;;
51266;SDS011;37338;47.426;19.204;2023-06-14T03:18:58;1999.90;;;999.90;;
51266;SDS011;37338;47.426;19.204;2023-06-14T03:21:24;1999.90;;;999.90;;
51266;SDS011;37338;47.426;19.204;2023-06-14T03:23:50;1999.90;;;999.90;;
51266;SDS011;37338;47.426;19.204;2023-06-14T03:26:17;1999.90;;;999.90;;
51266;SDS011;37338;47.426;19.204;2023-06-14T03:28:43;1841.90;;;999.90;;
51266;SDS011;37338;47.426;19.204;2023-06-14T03:31:12;1641.27;;;999.90;;
51266;SDS011;37338;47.426;19.204;2023-06-14T03:33:38;1589.63;;;999.90;;
51266;SDS011;37338;47.426;19.204;2023-06-14T03:36:04;1616.60;;;999.90;;
51266;SDS011;37338;47.426;19.204;2023-06-14T03:38:30;1387.07;;;999.90;;
51266;SDS011;37338;47.426;19.204;2023-06-14T03:40:56;1396.13;;;999.90;;
51266;SDS011;37338;47.426;19.204;2023-06-14T03:43:21;1332.50;;;999.90;;
51266;SDS011;37338;47.426;19.204;2023-06-14T03:45:46;1297.00;;;999.90;;
51266;SDS011;37338;47.426;19.204;2023-06-14T03:48:12;1321.17;;;999.90;;
51266;SDS011;37338;47.426;19.204;2023-06-14T03:50:37;1215.40;;;999.90;;
51266;SDS011;37338;47.426;19.204;2023-06-14T03:53:07;1330.03;;;999.90;;
51266;SDS011;37338;47.426;19.204;2023-06-14T03:55:33;1312.40;;;999.90;;
51266;SDS011;37338;47.426;19.204;2023-06-14T03:57:58;1337.33;;;999.90;;
51266;SDS011;37338;47.426;19.204;2023-06-14T04:00:24;1332.40;;;999.90;;
51266;SDS011;37338;47.426;19.204;2023-06-14T04:02:50;1300.27;;;999.90;;
51266;SDS011;37338;47.426;19.204;2023-06-14T04:05:15;1302.07;;;999.90;;
51266;SDS011;37338;47.426;19.204;2023-06-14T04:07:42;1400.97;;;999.90;;
51266;SDS011;37338;47.426;19.204;2023-06-14T04:10:10;1395.40;;;999.90;;
51266;SDS011;37338;47.426;19.204;2023-06-14T04:12:36;1477.32;;;999.90;;
51266;SDS011;37338;47.426;19.204;2023-06-14T04:15:02;1551.47;;;999.90;;
51266;SDS011;37338;47.426;19.204;2023-06-14T04:17:27;1431.15;;;999.90;;
51266;SDS011;37338;47.426;19.204;2023-06-14T04:19:53;1435.82;;;999.90;;
51266;SDS011;37338;47.426;19.204;2023-06-14T04:22:18;1416.43;;;999.90;;
51266;SDS011;37338;47.426;19.204;2023-06-14T04:24:44;1470.82;;;999.90;;
51266;SDS011;37338;47.426;19.204;2023-06-14T04:27:09;1400.13;;;999.47;;
51266;SDS011;37338;47.426;19.204;2023-06-14T04:29:35;1400.13;;;999.90;;
51266;SDS011;37338;47.426;19.204;2023-06-14T04:32:00;1318.28;;;966.95;;
51266;SDS011;37338;47.426;19.204;2023-06-14T04:34:26;1535.72;;;999.90;;
51266;SDS011;37338;47.426;19.204;2023-06-14T04:36:54;1611.03;;;999.90;;
51266;SDS011;37338;47.426;19.204;2023-06-14T04:39:24;1836.28;;;999.90;;
51266;SDS011;37338;47.426;19.204;2023-06-14T04:41:51;1961.28;;;999.90;;
51266;SDS011;37338;47.426;19.204;2023-06-14T04:44:18;1892.00;;;999.90;;
51266;SDS011;37338;47.426;19.204;2023-06-14T04:46:44;1458.88;;;999.90;;
51266;SDS011;37338;47.426;19.204;2023-06-14T04:49:16;894.83;;;815.75;;
51266;SDS011;37338;47.426;19.204;2023-06-14T04:51:42;279.20;;;261.33;;
51266;SDS011;37338;47.426;19.204;2023-06-14T04:54:09;11.32;;;8.05;;
51266;SDS011;37338;47.426;19.204;2023-06-14T04:56:42;88.53;;;82.57;;
51266;SDS011;37338;47.426;19.204;2023-06-14T04:59:07;170.02;;;159.43;;
51266;SDS011;37338;47.426;19.204;2023-06-14T05:01:34;92.85;;;86.53;;
51266;SDS011;37338;47.426;19.204;2023-06-14T05:03:59;173.32;;;161.05;;
51266;SDS011;37338;47.426;19.204;2023-06-14T05:06:25;344.00;;;318.33;;
51266;SDS011;37338;47.426;19.204;2023-06-14T05:08:52;654.67;;;605.75;;
51266;SDS011;37338;47.426;19.204;2023-06-14T05:11:18;832.08;;;764.70;;
51266;SDS011;37338;47.426;19.204;2023-06-14T05:13:43;759.13;;;702.50;;
51266;SDS011;37338;47.426;19.204;2023-06-14T05:16:09;804.45;;;746.38;;
51266;SDS011;37338;47.426;19.204;2023-06-14T05:18:36;844.33;;;781.17;;
51266;SDS011;37338;47.426;19.204;2023-06-14T05:21:02;1230.78;;;986.63;;
51266;SDS011;37338;47.426;19.204;2023-06-14T05:23:29;1999.90;;;999.90;;
51266;SDS011;37338;47.426;19.204;2023-06-14T05:25:55;1999.90;;;999.90;;
51266;SDS011;37338;47.426;19.204;2023-06-14T05:28:20;1999.90;;;999.90;;
51266;SDS011;37338;47.426;19.204;2023-06-14T05:30:46;1108.15;;;994.00;;
51266;SDS011;37338;47.426;19.204;2023-06-14T05:33:11;674.25;;;628.25;;
51266;SDS011;37338;47.426;19.204;2023-06-14T05:35:36;637.92;;;593.90;;
51266;SDS011;37338;47.426;19.204;2023-06-14T05:38:03;671.75;;;625.58;;
51266;SDS011;37338;47.426;19.204;2023-06-14T05:40:28;879.70;;;815.63;;
51266;SDS011;37338;47.426;19.204;2023-06-14T05:42:53;569.05;;;533.90;;
51266;SDS011;37338;47.426;19.204;2023-06-14T05:45:19;535.03;;;500.88;;
51266;SDS011;37338;47.426;19.204;2023-06-14T05:47:44;57.92;;;54.42;;
51266;SDS011;37338;47.426;19.204;2023-06-14T05:50:10;5.90;;;5.28;;
51266;SDS011;37338;47.426;19.204;2023-06-14T05:52:35;6.13;;;4.32;;
51266;SDS011;37338;47.426;19.204;2023-06-14T05:55:02;11.07;;;5.00;;
51266;SDS011;37338;47.426;19.204;2023-06-14T05:57:28;16.70;;;5.30;;
51266;SDS011;37338;47.426;19.204;2023-06-14T05:59:53;9.10;;;4.80;;
51266;SDS011;37338;47.426;19.204;2023-06-14T06:02:19;10.43;;;4.80;;
51266;SDS011;37338;47.426;19.204;2023-06-14T06:04:45;7.32;;;4.85;;
51266;SDS011;37338;47.426;19.204;2023-06-14T06:07:10;7.00;;;4.80;;
51266;SDS011;37338;47.426;19.204;2023-06-14T06:09:35;7.95;;;5.45;;
51266;SDS011;37338;47.426;19.204;2023-06-14T06:12:01;7.25;;;4.60;;
51266;SDS011;37338;47.426;19.204;2023-06-14T06:14:26;8.48;;;4.85;;
51266;SDS011;37338;47.426;19.204;2023-06-14T06:16:53;6.40;;;4.05;;
51266;SDS011;37338;47.426;19.204;2023-06-14T06:19:18;4.90;;;4.20;;
51266;SDS011;37338;47.426;19.204;2023-06-14T06:21:44;5.22;;;4.40;;
51266;SDS011;37338;47.426;19.204;2023-06-14T06:24:09;9.35;;;4.90;;
51266;SDS011;37338;47.426;19.204;2023-06-14T06:26:35;8.00;;;4.40;;
51266;SDS011;37338;47.426;19.204;2023-06-14T06:29:00;6.38;;;4.60;;
51266;SDS011;37338;47.426;19.204;2023-06-14T06:31:26;5.28;;;4.78;;
51266;SDS011;37338;47.426;19.204;2023-06-14T06:33:52;7.10;;;4.93;;
51266;SDS011;37338;47.426;19.204;2023-06-14T06:36:19;6.70;;;5.30;;
51266;SDS011;37338;47.426;19.204;2023-06-14T06:38:45;8.50;;;5.10;;
51266;SDS011;37338;47.426;19.204;2023-06-14T06:41:11;6.80;;;4.95;;
51266;SDS011;37338;47.426;19.204;2023-06-14T06:43:36;8.32;;;5.75;;
51266;SDS011;37338;47.426;19.204;2023-06-14T06:46:01;7.18;;;4.35;;
51266;SDS011;37338;47.426;19.204;2023-06-14T06:48:27;7.35;;;4.68;;
51266;SDS011;37338;47.426;19.204;2023-06-14T06:50:53;5.80;;;4.57;;
51266;SDS011;37338;47.426;19.204;2023-06-14T06:53:19;6.25;;;4.47;;
51266;SDS011;37338;47.426;19.204;2023-06-14T06:55:44;4.22;;;3.83;;
51266;SDS011;37338;47.426;19.204;2023-06-14T06:58:09;7.45;;;4.72;;
51266;SDS011;37338;47.426;19.204;2023-06-14T07:00:35;5.05;;;4.43;;
51266;SDS011;37338;47.426;19.204;2023-06-14T07:03:01;7.32;;;4.63;;
51266;SDS011;37338;47.426;19.204;2023-06-14T07:05:26;5.28;;;4.47;;
51266;SDS011;37338;47.426;19.204;2023-06-14T07:07:52;5.45;;;3.58;;
51266;SDS011;37338;47.426;19.204;2023-06-14T07:10:17;5.32;;;3.55;;
51266;SDS011;37338;47.426;19.204;2023-06-14T07:12:43;11.55;;;3.67;;
51266;SDS011;37338;47.426;19.204;2023-06-14T07:15:09;6.53;;;3.30;;
51266;SDS011;37338;47.426;19.204;2023-06-14T07:17:34;10.00;;;3.95;;
51266;SDS011;37338;47.426;19.204;2023-06-14T07:20:01;8.98;;;4.18;;
51266;SDS011;37338;47.426;19.204;2023-06-14T07:22:37;4.78;;;4.28;;
51266;SDS011;37338;47.426;19.204;2023-06-14T07:25:05;10.02;;;4.65;;
51266;SDS011;37338;47.426;19.204;2023-06-14T07:27:31;4.07;;;3.13;;
51266;SDS011;37338;47.426;19.204;2023-06-14T07:29:57;9.40;;;3.42;;
51266;SDS011;37338;47.426;19.204;2023-06-14T07:32:22;5.57;;;3.65;;
51266;SDS011;37338;47.426;19.204;2023-06-14T07:34:47;5.05;;;3.63;;
51266;SDS011;37338;47.426;19.204;2023-06-14T07:37:13;6.00;;;4.00;;
51266;SDS011;37338;47.426;19.204;2023-06-14T07:39:38;8.38;;;3.92;;
51266;SDS011;37338;47.426;19.204;2023-06-14T07:42:03;7.88;;;3.60;;
51266;SDS011;37338;47.426;19.204;2023-06-14T07:44:30;6.72;;;4.07;;
51266;SDS011;37338;47.426;19.204;2023-06-14T07:46:58;4.47;;;4.00;;
51266;SDS011;37338;47.426;19.204;2023-06-14T07:49:25;8.20;;;4.22;;
51266;SDS011;37338;47.426;19.204;2023-06-14T07:51:51;9.82;;;4.03;;
51266;SDS011;37338;47.426;19.204;2023-06-14T07:54:16;4.32;;;3.88;;
51266;SDS011;37338;47.426;19.204;2023-06-14T07:56:42;6.78;;;3.78;;
51266;SDS011;37338;47.426;19.204;2023-06-14T07:59:07;11.35;;;4.43;;
51266;SDS011;37338;47.426;19.204;2023-06-14T08:01:33;10.40;;;4.57;;
51266;SDS011;37338;47.426;19.204;2023-06-14T08:03:59;8.07;;;4.35;;
51266;SDS011;37338;47.426;19.204;2023-06-14T08:06:24;8.43;;;3.75;;
51266;SDS011;37338;47.426;19.204;2023-06-14T08:08:50;7.30;;;3.90;;
51266;SDS011;37338;47.426;19.204;2023-06-14T08:11:15;23.27;;;4.80;;
51266;SDS011;37338;47.426;19.204;2023-06-14T08:13:41;6.72;;;3.58;;
51266;SDS011;37338;47.426;19.204;2023-06-14T08:16:06;7.95;;;3.53;;
51266;SDS011;37338;47.426;19.204;2023-06-14T08:18:31;4.78;;;3.97;;
51266;SDS011;37338;47.426;19.204;2023-06-14T08:20:57;6.55;;;3.90;;
51266;SDS011;37338;47.426;19.204;2023-06-14T08:23:23;4.25;;;3.85;;
51266;SDS011;37338;47.426;19.204;2023-06-14T08:25:48;6.13;;;4.00;;
51266;SDS011;37338;47.426;19.204;2023-06-14T08:28:14;10.10;;;4.00;;
51266;SDS011;37338;47.426;19.204;2023-06-14T08:30:40;13.65;;;4.35;;
51266;SDS011;37338;47.426;19.204;2023-06-14T08:33:07;5.25;;;3.70;;
51266;SDS011;37338;47.426;19.204;2023-06-14T08:35:32;9.43;;;3.10;;
51266;SDS011;37338;47.426;19.204;2023-06-14T08:37:58;7.22;;;3.65;;
51266;SDS011;37338;47.426;19.204;2023-06-14T08:40:23;4.05;;;3.60;;
51266;SDS011;37338;47.426;19.204;2023-06-14T08:42:50;5.10;;;3.65;;
51266;SDS011;37338;47.426;19.204;2023-06-14T08:45:17;5.00;;;2.78;;
51266;SDS011;37338;47.426;19.204;2023-06-14T08:47:44;5.30;;;3.10;;
51266;SDS011;37338;47.426;19.204;2023-06-14T08:50:10;4.40;;;3.30;;
51266;SDS011;37338;47.426;19.204;2023-06-14T08:52:37;5.95;;;3.28;;
51266;SDS011;37338;47.426;19.204;2023-06-14T08:55:10;8.07;;;3.25;;
51266;SDS011;37338;47.426;19.204;2023-06-14T08:57:36;4.93;;;3.55;;
51266;SDS011;37338;47.426;19.204;2023-06-14T09:00:02;6.57;;;3.58;;
51266;SDS011;37338;47.426;19.204;2023-06-14T09:02:36;7.47;;;3.38;;
51266;SDS011;37338;47.426;19.204;2023-06-14T09:05:02;6.88;;;2.83;;
51266;SDS011;37338;47.426;19.204;2023-06-14T09:07:28;3.80;;;2.22;;
51266;SDS011;37338;47.426;19.204;2023-06-14T09:10:10;3.13;;;2.33;;
51266;SDS011;37338;47.426;19.204;2023-06-14T09:12:37;4.05;;;2.70;;
51266;SDS011;37338;47.426;19.204;2023-06-14T09:15:04;4.75;;;2.30;;
51266;SDS011;37338;47.426;19.204;2023-06-14T09:17:40;10.55;;;3.10;;
51266;SDS011;37338;47.426;19.204;2023-06-14T09:20:06;7.50;;;3.03;;
51266;SDS011;37338;47.426;19.204;2023-06-14T09:22:42;5.88;;;2.40;;
51266;SDS011;37338;47.426;19.204;2023-06-14T09:25:08;4.70;;;2.60;;
51266;SDS011;37338;47.426;19.204;2023-06-14T09:27:33;8.65;;;3.92;;
51266;SDS011;37338;47.426;19.204;2023-06-14T09:30:00;2.97;;;2.50;;
51266;SDS011;37338;47.426;19.204;2023-06-14T09:32:27;4.63;;;2.83;;
51266;SDS011;37338;47.426;19.204;2023-06-14T09:34:52;3.40;;;2.60;;
51266;SDS011;37338;47.426;19.204;2023-06-14T09:37:30;7.68;;;2.70;;
51266;SDS011;37338;47.426;19.204;2023-06-14T09:39:57;5.25;;;3.08;;
51266;SDS011;37338;47.426;19.204;2023-06-14T09:42:23;6.30;;;3.17;;
51266;SDS011;37338;47.426;19.204;2023-06-14T09:44:50;10.80;;;4.18;;
51266;SDS011;37338;47.426;19.204;2023-06-14T09:47:17;12.77;;;3.00;;
51266;SDS011;37338;47.426;19.204;2023-06-14T09:49:42;10.07;;;3.13;;
51266;SDS011;37338;47.426;19.204;2023-06-14T09:52:10;6.25;;;3.08;;
51266;SDS011;37338;47.426;19.204;2023-06-14T09:54:41;4.30;;;3.50;;
51266;SDS011;37338;47.426;19.204;2023-06-14T09:57:09;5.95;;;2.67;;
51266;SDS011;37338;47.426;19.204;2023-06-14T09:59:36;8.63;;;3.00;;
51266;SDS011;37338;47.426;19.204;2023-06-14T10:02:08;4.30;;;2.72;;
51266;SDS011;37338;47.426;19.204;2023-06-14T10:04:44;6.45;;;2.35;;
51266;SDS011;37338;47.426;19.204;2023-06-14T10:07:15;7.20;;;2.50;;
51266;SDS011;37338;47.426;19.204;2023-06-14T10:09:44;8.13;;;2.88;;
51266;SDS011;37338;47.426;19.204;2023-06-14T10:12:15;5.55;;;2.38;;
51266;SDS011;37338;47.426;19.204;2023-06-14T10:14:46;5.28;;;2.38;;
51266;SDS011;37338;47.426;19.204;2023-06-14T10:17:17;3.72;;;2.35;;
51266;SDS011;37338;47.426;19.204;2023-06-14T10:22:37;3.17;;;2.13;;
51266;SDS011;37338;47.426;19.204;2023-06-14T10:25:12;10.18;;;1.90;;
51266;SDS011;37338;47.426;19.204;2023-06-14T10:27:38;2.97;;;1.48;;
51266;SDS011;37338;47.426;19.204;2023-06-14T10:30:05;4.38;;;1.70;;
51266;SDS011;37338;47.426;19.204;2023-06-14T10:32:32;4.80;;;1.42;;
51266;SDS011;37338;47.426;19.204;2023-06-14T10:35:04;4.07;;;2.22;;
51266;SDS011;37338;47.426;19.204;2023-06-14T10:37:30;6.10;;;1.75;;
51266;SDS011;37338;47.426;19.204;2023-06-14T10:39:56;7.93;;;2.05;;
51266;SDS011;37338;47.426;19.204;2023-06-14T10:42:22;6.20;;;1.58;;
51266;SDS011;37338;47.426;19.204;2023-06-14T10:44:54;4.53;;;1.52;;
51266;SDS011;37338;47.426;19.204;2023-06-14T10:47:35;6.18;;;1.75;;
51266;SDS011;37338;47.426;19.204;2023-06-14T10:50:06;3.93;;;1.90;;
51266;SDS011;37338;47.426;19.204;2023-06-14T10:52:42;3.75;;;1.55;;
51266;SDS011;37338;47.426;19.204;2023-06-14T10:57:46;11.13;;;2.20;;
51266;SDS011;37338;47.426;19.204;2023-06-14T11:00:16;6.45;;;2.42;;
51266;SDS011;37338;47.426;19.204;2023-06-14T11:02:51;8.32;;;2.50;;
51266;SDS011;37338;47.426;19.204;2023-06-14T11:05:24;5.13;;;2.42;;
51266;SDS011;37338;47.426;19.204;2023-06-14T11:10:46;3.70;;;2.65;;
51266;SDS011;37338;47.426;19.204;2023-06-14T11:13:12;6.82;;;2.10;;
51266;SDS011;37338;47.426;19.204;2023-06-14T11:15:38;3.50;;;2.10;;
51266;SDS011;37338;47.426;19.204;2023-06-14T11:18:04;4.65;;;2.70;;
51266;SDS011;37338;47.426;19.204;2023-06-14T11:20:32;4.35;;;2.38;;
51266;SDS011;37338;47.426;19.204;2023-06-14T11:22:59;6.35;;;2.22;;
51266;SDS011;37338;47.426;19.204;2023-06-14T11:25:26;3.75;;;2.30;;
51266;SDS011;37338;47.426;19.204;2023-06-14T11:27:53;4.88;;;2.50;;
51266;SDS011;37338;47.426;19.204;2023-06-14T11:30:19;2.85;;;1.50;;
51266;SDS011;37338;47.426;19.204;2023-06-14T11:32:47;3.92;;;1.88;;
51266;SDS011;37338;47.426;19.204;2023-06-14T11:35:14;4.40;;;1.98;;
51266;SDS011;37338;47.426;19.204;2023-06-14T11:37:40;4.50;;;1.73;;
51266;SDS011;37338;47.426;19.204;2023-06-14T11:40:07;3.00;;;2.03;;
51266;SDS011;37338;47.426;19.204;2023-06-14T11:42:33;5.55;;;2.00;;
51266;SDS011;37338;47.426;19.204;2023-06-14T11:44:59;5.25;;;1.85;;
51266;SDS011;37338;47.426;19.204;2023-06-14T11:47:31;3.83;;;1.75;;
51266;SDS011;37338;47.426;19.204;2023-06-14T11:50:14;4.82;;;2.05;;
51266;SDS011;37338;47.426;19.204;2023-06-14T11:52:40;9.30;;;2.20;;
51266;SDS011;37338;47.426;19.204;2023-06-14T11:55:05;5.38;;;2.10;;
51266;SDS011;37338;47.426;19.204;2023-06-14T11:57:34;7.75;;;2.45;;
51266;SDS011;37338;47.426;19.204;2023-06-14T12:00:02;3.42;;;1.70;;
51266;SDS011;37338;47.426;19.204;2023-06-14T12:02:31;3.90;;;2.10;;
51266;SDS011;37338;47.426;19.204;2023-06-14T12:05:03;2.85;;;2.17;;
51266;SDS011;37338;47.426;19.204;2023-06-14T12:07:30;7.47;;;1.52;;
51266;SDS011;37338;47.426;19.204;2023-06-14T12:12:21;4.00;;;1.65;;
51266;SDS011;37338;47.426;19.204;2023-06-14T12:14:47;4.72;;;2.03;;
51266;SDS011;37338;47.426;19.204;2023-06-14T12:17:16;8.80;;;1.90;;
51266;SDS011;37338;47.426;19.204;2023-06-14T12:19:42;4.78;;;2.15;;
51266;SDS011;37338;47.426;19.204;2023-06-14T12:22:11;5.32;;;2.25;;
51266;SDS011;37338;47.426;19.204;2023-06-14T12:24:38;9.77;;;1.80;;
51266;SDS011;37338;47.426;19.204;2023-06-14T12:27:04;6.55;;;1.85;;
51266;SDS011;37338;47.426;19.204;2023-06-14T12:29:30;8.10;;;2.60;;
51266;SDS011;37338;47.426;19.204;2023-06-14T12:31:56;3.42;;;1.83;;
51266;SDS011;37338;47.426;19.204;2023-06-14T12:34:25;4.75;;;1.60;;
51266;SDS011;37338;47.426;19.204;2023-06-14T12:36:52;5.53;;;1.50;;
51266;SDS011;37338;47.426;19.204;2023-06-14T12:39:18;4.32;;;1.45;;
51266;SDS011;37338;47.426;19.204;2023-06-14T12:41:44;3.08;;;1.52;;
51266;SDS011;37338;47.426;19.204;2023-06-14T12:44:10;3.78;;;2.10;;
51266;SDS011;37338;47.426;19.204;2023-06-14T12:46:36;12.70;;;2.25;;
51266;SDS011;37338;47.426;19.204;2023-06-14T12:49:02;4.88;;;2.35;;
51266;SDS011;37338;47.426;19.204;2023-06-14T12:51:27;3.85;;;1.88;;
51266;SDS011;37338;47.426;19.204;2023-06-14T12:53:53;2.85;;;1.70;;
51266;SDS011;37338;47.426;19.204;2023-06-14T12:56:18;1.92;;;1.70;;
51266;SDS011;37338;47.426;19.204;2023-06-14T12:58:43;2.22;;;1.70;;
51266;SDS011;37338;47.426;19.204;2023-06-14T13:01:09;5.20;;;1.80;;
51266;SDS011;37338;47.426;19.204;2023-06-14T13:03:34;3.95;;;1.98;;
51266;SDS011;37338;47.426;19.204;2023-06-14T13:06:00;4.28;;;2.15;;
51266;SDS011;37338;47.426;19.204;2023-06-14T13:08:27;3.38;;;1.75;;
51266;SDS011;37338;47.426;19.204;2023-06-14T13:10:53;2.75;;;2.08;;
51266;SDS011;37338;47.426;19.204;2023-06-14T13:13:18;2.88;;;2.10;;
51266;SDS011;37338;47.426;19.204;2023-06-14T13:15:44;4.40;;;2.92;;
51266;SDS011;37338;47.426;19.204;2023-06-14T13:18:11;5.40;;;1.80;;
51266;SDS011;37338;47.426;19.204;2023-06-14T13:20:38;10.20;;;2.30;;
51266;SDS011;37338;47.426;19.204;2023-06-14T13:23:03;3.90;;;1.73;;
51266;SDS011;37338;47.426;19.204;2023-06-14T13:25:30;2.05;;;1.83;;
51266;SDS011;37338;47.426;19.204;2023-06-14T13:27:56;6.68;;;2.70;;
51266;SDS011;37338;47.426;19.204;2023-06-14T13:30:21;5.90;;;2.55;;
51266;SDS011;37338;47.426;19.204;2023-06-14T13:32:47;4.32;;;2.25;;
51266;SDS011;37338;47.426;19.204;2023-06-14T13:35:12;5.00;;;2.15;;
51266;SDS011;37338;47.426;19.204;2023-06-14T13:37:38;3.65;;;2.05;;
51266;SDS011;37338;47.426;19.204;2023-06-14T13:40:03;4.75;;;2.33;;
51266;SDS011;37338;47.426;19.204;2023-06-14T13:42:29;3.15;;;2.22;;
51266;SDS011;37338;47.426;19.204;2023-06-14T13:44:57;6.13;;;2.08;;
51266;SDS011;37338;47.426;19.204;2023-06-14T13:47:23;4.40;;;2.30;;
51266;SDS011;37338;47.426;19.204;2023-06-14T13:49:48;5.07;;;2.28;;
51266;SDS011;37338;47.426;19.204;2023-06-14T13:52:13;6.47;;;1.80;;
51266;SDS011;37338;47.426;19.204;2023-06-14T13:54:39;2.42;;;1.60;;
51266;SDS011;37338;47.426;19.204;2023-06-14T13:57:04;4.50;;;2.70;;
51266;SDS011;37338;47.426;19.204;2023-06-14T13:59:30;4.07;;;1.63;;
51266;SDS011;37338;47.426;19.204;2023-06-14T14:01:56;5.18;;;2.42;;
51266;SDS011;37338;47.426;19.204;2023-06-14T14:04:21;2.67;;;1.80;;
51266;SDS011;37338;47.426;19.204;2023-06-14T14:06:47;3.13;;;1.80;;
51266;SDS011;37338;47.426;19.204;2023-06-14T14:09:12;5.75;;;3.10;;
51266;SDS011;37338;47.426;19.204;2023-06-14T14:11:37;7.00;;;2.63;;
51266;SDS011;37338;47.426;19.204;2023-06-14T14:14:04;6.15;;;2.00;;
51266;SDS011;37338;47.426;19.204;2023-06-14T14:16:30;4.90;;;2.10;;
51266;SDS011;37338;47.426;19.204;2023-06-14T14:18:55;5.22;;;2.00;;
51266;SDS011;37338;47.426;19.204;2023-06-14T14:21:21;3.22;;;1.95;;
51266;SDS011;37338;47.426;19.204;2023-06-14T14:23:46;4.45;;;1.67;;